Terminal Aerodrome Forecast
Issued by NWS Detroit/Pontiac, MI

Home | Current Version | Previous Version | Text Only | Print | Product List | Glossary On
Versions: 1 2 3 4 5 6 7 8 9 10 11 12 13 14 15 16 17 18 19 20 21 22 23 24 25 26 27
969
FTUS43 KDTX 242325
TAFDTW
TAF
KDTW 242325Z 2500/2606 20007KT P6SM SCT040 BKN100 OVC250
     FM250400 20007KT P6SM SCT040 OVC080
      TEMPO 2505/2508 2SM TSRA OVC035CB
     FM251000 24005KT 5SM BR BKN020 OVC040
     FM251500 28012KT P6SM SCT050=

USA.gov is the U.S. government's official web portal to all federal, state and local government web resources and services.